Time;durP1;ratioP1;P1;durP2;ratioP2;P2;SDS_P1;SDS_P2;PMS_P1;PMS_P2;Temp;Humidity;BMP_temperature;BMP_pressure;BME280_temperature;BME280_humidity;BME280_pressure;Samples;Min_cycle;Max_cycle;Signal;HPM_P1;HPM_P2
2022/02/26 00:00:03;;;;;;;11.50;8.93;;;1.60;99.90;;;0.18;95.11;99111.56;5043800;28;20930;-77
2022/02/26 00:02:30;;;;;;;15.87;9.13;;;1.70;99.90;;;0.15;95.30;99106.50;5033090;28;20484;-76
2022/02/26 00:04:57;;;;;;;11.20;9.50;;;1.70;99.90;;;0.33;95.58;99111.31;5044352;28;20525;-76
2022/02/26 00:07:24;;;;;;;14.63;9.83;;;1.80;99.90;;;0.22;94.33;99107.69;5038688;28;20522;-77
2022/02/26 00:09:50;;;;;;;11.47;8.40;;;1.80;99.90;;;0.13;95.26;99108.44;5019393;28;20526;-77
2022/02/26 00:12:17;;;;;;;9.50;7.60;;;1.70;99.90;;;0.08;95.13;99121.28;5036562;28;20458;-77
2022/02/26 00:14:44;;;;;;;13.50;8.53;;;1.70;99.90;;;0.08;95.34;99121.28;5018897;28;20446;-77
2022/02/26 00:17:13;;;;;;;17.60;9.40;;;1.70;99.90;;;0.17;95.17;99127.66;5036767;28;20473;-77
2022/02/26 00:19:41;;;;;;;14.47;9.30;;;1.70;99.90;;;0.36;94.68;99117.25;5036869;28;20442;-75
2022/02/26 00:22:08;;;;;;;10.77;8.30;;;1.80;99.90;;;0.24;94.56;99121.75;5020385;28;20467;-76
2022/02/26 00:24:35;;;;;;;15.93;9.47;;;1.80;99.90;;;0.19;94.67;99118.59;5043862;28;20865;-75
2022/02/26 00:27:01;;;;;;;16.53;9.40;;;1.70;99.90;;;0.16;94.78;99113.53;5054824;28;20450;-76
2022/02/26 00:29:29;;;;;;;13.17;9.27;;;1.70;99.90;;;0.34;94.36;99121.00;5033438;28;20458;-76
2022/02/26 00:31:56;;;;;;;12.70;8.13;;;1.80;99.90;;;0.12;94.60;99126.19;5037721;28;20435;-76
2022/02/26 00:34:24;;;;;;;12.77;7.93;;;1.70;99.90;;;0.03;94.70;99121.63;5019620;28;20435;-76
2022/02/26 00:36:51;;;;;;;12.03;8.23;;;1.60;99.90;;;0.02;94.79;99132.38;5036480;28;20535;-76
2022/02/26 00:39:18;;;;;;;10.27;8.00;;;1.50;99.90;;;-0.23;95.78;99139.56;5018346;28;20476;-77
2022/02/26 00:41:45;;;;;;;15.47;8.47;;;1.40;99.90;;;-0.29;96.51;99133.78;5018635;28;20553;-74
2022/02/26 00:44:12;;;;;;;16.20;7.70;;;1.30;99.90;;;-0.30;96.70;99145.38;5035705;28;20521;-76
2022/02/26 00:46:39;;;;;;;15.03;8.40;;;1.30;99.90;;;-0.32;96.56;99144.66;5036230;28;20450;-75
2022/02/26 00:51:52;;;;;;;13.83;7.70;;;1.20;99.90;;;-0.46;97.41;99156.31;5018686;28;20516;-75
2022/02/26 00:54:19;;;;;;;10.80;7.27;;;1.10;99.90;;;-0.39;97.53;99158.53;5036332;28;20435;-75
2022/02/26 00:56:46;;;;;;;13.27;8.03;;;1.20;99.90;;;-0.41;96.95;99155.97;5035936;28;20940;-75
2022/02/26 00:59:13;;;;;;;10.83;7.30;;;1.10;99.90;;;-0.51;97.11;99158.50;5017894;28;20467;-75
2022/02/26 01:01:39;;;;;;;9.37;7.60;;;1.10;99.90;;;-0.54;97.28;99164.03;5036034;28;20510;-75
2022/02/26 01:04:08;;;;;;;12.13;7.40;;;1.10;99.90;;;-0.57;96.77;99159.78;5034210;28;20465;-75
2022/02/26 01:06:35;;;;;;;9.57;7.47;;;1.00;99.90;;;-0.60;97.81;99170.66;5036168;28;20445;-75
2022/02/26 01:09:04;;;;;;;9.80;6.83;;;1.00;99.90;;;-0.62;97.51;99166.41;5022568;28;20482;-76
2022/02/26 01:11:31;;;;;;;8.70;6.57;;;0.90;99.90;;;-0.69;97.77;99171.34;5039542;28;20776;-76
2022/02/26 01:13:59;;;;;;;10.70;7.00;;;0.90;99.90;;;-0.66;97.98;99179.09;5036350;28;20941;-77
2022/02/26 01:16:26;;;;;;;13.37;7.77;;;0.90;99.90;;;-0.66;97.31;99170.25;5035829;28;20477;-75
2022/02/26 01:18:53;;;;;;;11.60;6.70;;;0.90;99.90;;;-0.73;97.95;99173.38;5035526;28;20810;-74
2022/02/26 01:21:21;;;;;;;9.90;6.60;;;0.90;99.90;;;-0.81;98.22;99174.94;5035727;28;20438;-74
2022/02/26 01:23:49;;;;;;;13.87;7.37;;;0.80;99.90;;;-0.82;98.69;99178.53;5035302;28;20449;-74
2022/02/26 01:26:18;;;;;;;12.80;6.83;;;0.80;99.90;;;-0.87;98.82;99173.56;5035425;28;20442;-74
2022/02/26 01:28:45;;;;;;;9.73;6.97;;;0.70;99.90;;;-0.89;97.99;99170.19;5035298;28;20517;-73
2022/02/26 01:31:12;;;;;;;12.33;7.20;;;0.70;99.90;;;-0.87;98.41;99179.72;5017414;28;20443;-74
2022/02/26 01:33:39;;;;;;;11.70;6.57;;;0.70;99.90;;;-0.92;98.41;99175.69;5016359;28;20457;-74
2022/02/26 01:36:08;;;;;;;11.87;7.10;;;0.70;99.90;;;-1.01;98.77;99172.78;5033930;28;21008;-75
2022/02/26 01:38:36;;;;;;;15.77;8.30;;;0.60;99.90;;;-1.08;99.86;99170.69;5034935;28;20468;-75
2022/02/26 01:41:04;;;;;;;13.77;8.53;;;0.60;99.90;;;-0.95;99.74;99178.59;5035305;28;20521;-76
2022/02/26 01:43:33;;;;;;;10.70;8.10;;;0.70;99.90;;;-0.96;99.91;99184.84;5017313;28;20473;-75
2022/02/26 01:46:02;;;;;;;12.57;6.60;;;0.60;99.90;;;-0.96;99.89;99191.03;5034743;28;20529;-74
2022/02/26 01:48:29;;;;;;;15.40;8.00;;;0.70;99.90;;;-0.89;99.34;99189.59;5034917;28;20442;-75
2022/02/26 01:50:57;;;;;;;14.20;8.30;;;0.70;99.90;;;-0.95;99.65;99184.75;5035431;28;20567;-76
2022/02/26 01:53:24;;;;;;;13.53;7.87;;;0.70;99.90;;;-0.94;99.78;99183.78;5034868;28;20449;-75
2022/02/26 01:55:52;;;;;;;13.20;7.67;;;0.60;99.90;;;-0.97;99.64;99181.38;5033794;28;20439;-75
2022/02/26 01:58:19;;;;;;;12.70;7.83;;;0.70;99.90;;;-0.83;100.00;99190.94;5034605;28;20466;-76
2022/02/26 02:00:47;;;;;;;13.90;9.00;;;0.70;99.90;;;-0.79;99.99;99191.56;5034912;28;20474;-75
2022/02/26 02:03:14;;;;;;;15.87;8.60;;;0.80;99.90;;;-0.73;99.29;99191.97;5033270;28;20586;-76
2022/02/26 02:05:43;;;;;;;14.13;8.37;;;0.80;99.90;;;-0.63;98.88;99194.78;5034469;28;20434;-74
2022/02/26 02:08:13;;;;;;;18.13;9.27;;;0.90;99.90;;;-0.50;99.18;99196.53;5016384;28;20799;-75
2022/02/26 02:10:43;;;;;;;11.30;8.33;;;1.00;99.90;;;-0.52;98.58;99190.47;5016416;28;20529;-75
2022/02/26 02:13:10;;;;;;;12.13;9.90;;;1.00;99.90;;;-0.45;98.75;99197.00;5034387;28;20513;-73
2022/02/26 02:15:40;;;;;;;14.50;9.20;;;1.10;99.90;;;-0.40;98.37;99205.47;5016352;28;20443;-74
2022/02/26 02:18:13;;;;;;;13.93;9.93;;;1.10;99.90;;;-0.38;98.30;99184.13;5034295;28;20549;-74
2022/02/26 02:20:42;;;;;;;16.67;9.83;;;1.20;99.90;;;-0.24;98.30;99191.00;5016367;28;20434;-75
2022/02/26 02:23:10;;;;;;;15.47;9.50;;;1.20;99.90;;;-0.33;97.67;99204.06;5016608;28;20442;-75
2022/02/26 02:25:39;;;;;;;21.00;9.67;;;1.20;99.90;;;-0.27;98.65;99194.78;5017009;28;20466;-74
2022/02/26 02:28:09;;;;;;;14.37;9.60;;;1.30;99.90;;;-0.32;98.10;99205.75;5034050;28;20453;-74
2022/02/26 02:30:36;;;;;;;14.80;9.77;;;1.20;99.90;;;-0.21;97.79;99198.78;5034784;28;20471;-74
2022/02/26 02:33:05;;;;;;;15.93;11.17;;;1.30;99.90;;;-0.32;98.30;99205.75;5036274;28;20449;-73
2022/02/26 02:35:38;;;;;;;16.30;10.00;;;1.30;99.90;;;-0.33;98.49;99200.53;5017431;28;20779;-74
2022/02/26 02:38:08;;;;;;;12.70;10.20;;;1.20;99.90;;;-0.35;97.97;99207.78;5034837;28;20501;-74
2022/02/26 02:40:38;;;;;;;13.43;9.87;;;1.20;99.90;;;-0.19;98.61;99210.13;5017215;28;20438;-73
2022/02/26 02:43:06;;;;;;;13.97;11.40;;;1.30;99.90;;;-0.17;97.85;99211.69;5036411;28;20530;-75
2022/02/26 02:45:33;;;;;;;17.17;10.63;;;1.40;99.90;;;0.06;97.52;99217.06;5046451;28;20512;-73
2022/02/26 02:48:01;;;;;;;17.17;10.57;;;1.40;99.90;;;-0.21;97.33;99206.75;5045377;28;20481;-74
2022/02/26 02:50:28;;;;;;;16.03;10.10;;;1.40;99.90;;;-0.29;98.17;99216.13;5044673;28;20522;-74
2022/02/26 02:52:56;;;;;;;20.10;11.33;;;1.30;99.90;;;-0.11;97.21;99212.19;5023407;28;21008;-74
2022/02/26 02:55:23;;;;;;;13.00;9.93;;;1.40;99.90;;;-0.26;97.74;99208.88;5036832;28;20489;-76
2022/02/26 02:57:52;;;;;;;17.37;10.10;;;1.30;99.90;;;-0.27;97.62;99212.50;5034271;28;20442;-75
2022/02/26 03:00:20;;;;;;;19.10;11.13;;;1.30;99.90;;;-0.37;97.77;99218.53;5035104;28;20470;-77
2022/02/26 03:02:48;;;;;;;16.20;10.23;;;1.20;99.90;;;-0.23;97.87;99219.28;5033961;28;20541;-76
2022/02/26 03:05:16;;;;;;;14.17;8.93;;;1.20;99.90;;;-0.31;97.24;99226.03;5033998;28;20444;-76
2022/02/26 03:07:43;;;;;;;18.27;10.17;;;1.20;99.90;;;-0.49;97.67;99225.59;5033801;28;20529;-75
2022/02/26 03:10:11;;;;;;;20.27;10.73;;;1.10;99.90;;;-0.51;98.49;99230.19;5016789;28;20787;-75
2022/02/26 03:12:38;;;;;;;15.70;10.40;;;1.10;99.90;;;-0.47;98.23;99234.28;5034124;28;20473;-75
2022/02/26 03:15:08;;;;;;;17.73;10.57;;;1.00;99.90;;;-0.60;98.22;99218.44;5033768;28;20481;-76
2022/02/26 03:17:35;;;;;;;20.60;11.50;;;1.00;99.90;;;-0.67;98.58;99227.84;5033657;28;20481;-73
2022/02/26 03:20:03;;;;;;;19.33;11.43;;;0.90;99.90;;;-0.65;98.68;99235.66;5033390;28;20494;-74
2022/02/26 03:22:30;;;;;;;17.90;10.80;;;1.00;99.90;;;-0.71;98.80;99229.00;5033453;28;20952;-73
2022/02/26 03:24:57;;;;;;;18.17;11.10;;;0.90;99.90;;;-0.71;99.12;99242.28;5016474;28;20739;-74
2022/02/26 03:27:24;;;;;;;18.93;10.83;;;0.90;99.90;;;-0.66;98.73;99237.50;5033507;28;20477;-73
2022/02/26 03:29:50;;;;;;;17.70;10.03;;;0.90;99.90;;;-0.68;98.92;99242.06;5015648;28;20464;-75
2022/02/26 03:32:19;;;;;;;16.63;10.47;;;0.90;99.90;;;-0.81;99.03;99242.09;5034972;28;20565;-76
2022/02/26 03:34:46;;;;;;;18.27;11.43;;;0.80;99.90;;;-0.86;99.00;99245.09;5019337;28;20955;-75
2022/02/26 03:37:14;;;;;;;17.43;10.00;;;0.80;99.90;;;-0.89;99.06;99249.78;5037385;28;20434;-75
2022/02/26 03:39:41;;;;;;;22.77;11.47;;;0.70;99.90;;;-1.01;99.42;99246.22;5037227;28;20463;-76
2022/02/26 03:42:11;;;;;;;19.87;11.60;;;0.60;99.90;;;-0.96;98.95;99260.00;5019213;28;20538;-77
2022/02/26 03:44:39;;;;;;;19.60;10.07;;;0.60;99.90;;;-1.12;99.75;99243.50;5037216;28;20472;-77
2022/02/26 03:47:06;;;;;;;18.30;10.93;;;0.50;99.90;;;-1.22;99.03;99251.25;5035898;28;20759;-77
2022/02/26 03:49:35;;;;;;;16.73;9.90;;;0.40;99.90;;;-1.27;99.56;99251.59;5036585;28;20464;-77
2022/02/26 03:52:02;;;;;;;21.10;10.83;;;0.30;99.90;;;-1.26;100.00;99258.59;5037055;28;20449;-76
2022/02/26 03:54:29;;;;;;;17.47;11.63;;;0.30;99.90;;;-1.23;99.54;99255.72;5037122;28;20439;-76
2022/02/26 03:56:56;;;;;;;20.20;11.50;;;0.30;99.90;;;-1.40;99.24;99261.38;5037341;28;20438;-77
2022/02/26 03:59:23;;;;;;;19.47;10.80;;;0.20;99.90;;;-1.51;99.71;99260.31;5037618;28;20568;-77
2022/02/26 04:01:50;;;;;;;21.83;11.40;;;0.10;99.90;;;-1.62;99.78;99258.44;5036970;28;20442;-77
2022/02/26 04:04:17;;;;;;;19.37;11.47;;;0.00;99.90;;;-1.47;100.00;99266.25;5019217;28;20869;-75
2022/02/26 04:06:45;;;;;;;19.53;12.73;;;0.00;99.90;;;-1.63;100.00;99269.13;5036985;28;20529;-76
2022/02/26 04:09:13;;;;;;;21.40;12.07;;;0.00;99.90;;;-1.70;100.00;99271.34;5037230;28;20462;-75
2022/02/26 04:11:40;;;;;;;21.20;13.20;;;0.00;99.90;;;-1.71;100.00;99281.13;5050546;28;20434;-75
2022/02/26 04:14:07;;;;;;;16.93;11.90;;;-0.10;99.90;;;-1.78;100.00;99284.31;5053129;28;20446;-74
2022/02/26 04:16:34;;;;;;;23.93;13.23;;;-0.10;99.90;;;-1.88;100.00;99289.38;5042790;28;20442;-74
2022/02/26 04:19:01;;;;;;;25.00;13.27;;;-0.20;99.90;;;-1.80;100.00;99291.50;5018709;28;20554;-74
2022/02/26 04:21:29;;;;;;;21.37;13.00;;;-0.20;99.90;;;-1.89;100.00;99293.81;5037425;28;20461;-76
2022/02/26 04:24:16;;;;;;;20.40;13.07;;;-0.20;99.90;;;-1.85;100.00;99308.56;5037063;28;20752;-76
2022/02/26 04:26:44;;;;;;;24.10;14.20;;;-0.20;99.90;;;-1.83;100.00;99304.94;5036230;28;20509;-76
2022/02/26 04:29:12;;;;;;;19.43;13.27;;;-0.30;99.90;;;-2.01;100.00;99306.09;5036547;28;20922;-76
2022/02/26 04:31:39;;;;;;;21.37;13.90;;;-0.40;99.90;;;-2.08;100.00;99296.84;5036533;28;20443;-76
2022/02/26 04:34:06;;;;;;;22.97;13.17;;;-0.40;99.90;;;-1.98;100.00;99315.63;5037176;28;20446;-76
2022/02/26 04:36:34;;;;;;;22.17;14.13;;;-0.40;99.90;;;-2.10;100.00;99319.97;5019171;28;20526;-76
2022/02/26 04:39:00;;;;;;;20.23;13.33;;;-0.50;99.90;;;-2.14;100.00;99321.94;5036121;28;20552;-76
2022/02/26 04:41:29;;;;;;;26.00;15.33;;;-0.50;99.90;;;-2.05;100.00;99324.94;5036208;28;20466;-75
2022/02/26 04:43:57;;;;;;;20.87;14.03;;;-0.50;99.90;;;-1.98;100.00;99326.22;5034705;28;20431;-75
2022/02/26 04:46:25;;;;;;;25.10;14.77;;;-0.40;99.90;;;-1.92;100.00;99339.06;5036131;28;20454;-75
2022/02/26 04:48:52;;;;;;;26.13;15.13;;;-0.30;99.90;;;-1.93;100.00;99333.88;5034342;28;20484;-75
2022/02/26 04:51:19;;;;;;;23.03;13.57;;;-0.30;99.90;;;-1.97;100.00;99337.69;5035813;28;20549;-74
2022/02/26 04:53:46;;;;;;;26.93;14.20;;;-0.30;99.90;;;-1.81;100.00;99343.66;5036367;28;20537;-75
2022/02/26 04:56:13;;;;;;;20.03;12.57;;;-0.20;99.90;;;-1.79;100.00;99347.03;5036107;28;20462;-75
2022/02/26 04:58:41;;;;;;;21.70;13.80;;;-0.20;99.90;;;-1.62;100.00;99350.34;5035918;28;20557;-74
2022/02/26 05:01:09;;;;;;;24.27;13.57;;;0.00;99.90;;;-1.53;100.00;99352.38;5035672;28;20564;-74
2022/02/26 05:03:36;;;;;;;30.03;14.20;;;0.10;99.90;;;-1.73;100.00;99295.41;5034402;28;20446;-75
2022/02/26 05:06:03;;;;;;;19.60;12.67;;;0.20;99.90;;;-1.25;100.00;99365.50;5034450;28;21005;-75
2022/02/26 05:08:30;;;;;;;20.23;13.00;;;0.30;99.90;;;-1.29;100.00;99368.38;5035477;28;20906;-75
2022/02/26 05:10:57;;;;;;;27.23;12.37;;;0.30;99.90;;;-1.15;100.00;99363.94;5018130;28;20518;-76
2022/02/26 05:13:25;;;;;;;19.47;11.87;;;0.40;99.90;;;-1.10;100.00;99369.75;5035987;28;20442;-76
2022/02/26 05:15:53;;;;;;;20.97;11.67;;;0.50;99.90;;;-1.00;100.00;99377.91;5034176;28;20529;-75
2022/02/26 05:18:20;;;;;;;20.70;11.33;;;0.50;99.90;;;-0.95;99.92;99378.44;5017850;28;20438;-76
2022/02/26 05:20:47;;;;;;;17.77;12.00;;;0.60;99.90;;;-1.25;99.81;99345.16;5035385;28;20484;-76
2022/02/26 05:23:14;;;;;;;23.10;11.90;;;0.50;99.90;;;-1.00;99.39;99378.78;5035354;28;20482;-75
2022/02/26 05:25:41;;;;;;;20.23;11.47;;;0.50;99.90;;;-0.83;98.80;99386.47;5035275;28;20952;-75
2022/02/26 05:28:08;;;;;;;16.47;11.57;;;0.60;99.90;;;-0.82;97.79;99388.22;5035625;28;20533;-75
2022/02/26 05:30:35;;;;;;;18.00;11.20;;;0.70;99.90;;;-0.88;97.70;99382.34;5033184;28;20533;-75
2022/02/26 05:33:04;;;;;;;17.30;9.60;;;0.70;99.90;;;-1.05;97.70;99388.00;5033072;28;20445;-76
2022/02/26 05:35:31;;;;;;;21.93;10.73;;;0.60;99.90;;;-1.04;97.09;99395.88;5035007;28;20470;-76
2022/02/26 05:37:58;;;;;;;19.30;9.87;;;0.50;99.90;;;-1.17;97.66;99401.16;5034855;28;20524;-77
2022/02/26 05:40:25;;;;;;;16.70;9.87;;;0.40;99.90;;;-1.00;97.88;99410.63;5017242;28;20490;-76
2022/02/26 05:42:53;;;;;;;21.73;10.70;;;0.50;99.90;;;-1.22;98.17;99408.59;5035171;28;20430;-75
2022/02/26 05:45:20;;;;;;;18.93;10.93;;;0.40;99.90;;;-1.29;99.48;99409.97;5035661;28;20438;-75
2022/02/26 05:47:47;;;;;;;20.27;10.87;;;0.40;99.90;;;-0.86;99.03;99425.56;5035460;28;20478;-74
2022/02/26 05:50:16;;;;;;;18.57;10.57;;;0.50;99.90;;;-0.84;98.21;99433.41;5034761;28;20446;-76
2022/02/26 05:52:43;;;;;;;17.60;10.57;;;0.70;99.90;;;-0.64;97.83;99436.47;5017381;28;20530;-74
2022/02/26 05:55:11;;;;;;;16.30;10.63;;;0.80;99.90;;;-0.91;97.41;99451.56;5036289;28;20523;-75
2022/02/26 05:57:38;;;;;;;16.40;10.40;;;0.70;99.90;;;-0.79;98.07;99454.34;5042312;28;20446;-75
2022/02/26 06:00:07;;;;;;;17.87;12.47;;;0.70;99.90;;;-0.87;98.35;99453.06;5039782;28;20524;-75
2022/02/26 06:02:34;;;;;;;14.63;10.80;;;0.70;99.90;;;-0.89;98.39;99457.63;5017639;28;20447;-75
2022/02/26 06:05:01;;;;;;;25.30;12.00;;;0.70;99.90;;;-0.76;98.93;99462.09;5034557;28;20522;-73
2022/02/26 06:07:30;;;;;;;15.17;11.53;;;0.70;99.90;;;-0.68;98.81;99462.41;5034680;28;20934;-74
2022/02/26 06:09:57;;;;;;;19.30;12.93;;;0.80;99.90;;;-0.71;97.81;99465.25;5025416;28;20442;-75
2022/02/26 06:12:24;;;;;;;17.73;11.27;;;0.80;99.90;;;-0.69;97.90;99463.34;5016779;28;20517;-74
2022/02/26 06:14:51;;;;;;;20.77;10.87;;;0.80;99.90;;;-0.91;97.84;99433.00;5033628;28;20435;-72
2022/02/26 06:17:18;;;;;;;19.87;11.57;;;0.80;99.90;;;-0.77;97.60;99471.00;5017165;28;20470;-72
2022/02/26 06:19:45;;;;;;;17.50;11.30;;;0.80;99.90;;;-0.79;98.13;99479.06;5016567;28;20564;-74
2022/02/26 06:22:12;;;;;;;14.47;11.30;;;0.80;99.90;;;-0.78;98.03;99480.75;5034133;28;20477;-72
2022/02/26 06:24:40;;;;;;;20.20;10.87;;;0.70;99.90;;;-0.58;98.19;99482.03;5016483;28;20526;-77
2022/02/26 06:27:07;;;;;;;13.73;9.60;;;0.90;99.90;;;-0.45;97.33;99487.34;5016157;28;21001;-77
2022/02/26 06:29:34;;;;;;;18.47;10.47;;;1.00;99.90;;;-0.55;95.99;99485.41;5016207;28;20442;-71
2022/02/26 06:32:01;;;;;;;17.03;10.60;;;1.00;99.90;;;-0.60;96.60;99473.31;5016560;28;20537;-81
2022/02/26 06:34:29;;;;;;;15.90;10.30;;;0.90;99.90;;;-0.32;96.38;99476.69;5035523;28;20521;-78
2022/02/26 06:36:56;;;;;;;17.90;9.33;;;1.10;99.90;;;-0.30;95.21;99488.03;5034510;28;20450;-83
2022/02/26 06:39:23;;;;;;;23.93;11.20;;;1.20;99.90;;;-0.19;95.37;99489.09;5034523;28;20561;-83
2022/02/26 06:41:51;;;;;;;21.97;12.13;;;1.20;99.90;;;0.13;95.53;99484.06;5016371;28;20438;-79
2022/02/26 06:44:19;;;;;;;18.43;11.20;;;1.40;99.90;;;0.48;94.26;99482.41;5034197;28;20433;-79
2022/02/26 06:46:47;;;;;;;16.50;9.10;;;1.70;99.90;;;0.32;92.96;99485.41;5034114;28;20512;-78
2022/02/26 06:49:14;;;;;;;14.37;8.77;;;1.70;99.90;;;0.09;92.83;99481.78;5034353;28;20444;-80
2022/02/26 06:51:41;;;;;;;16.43;8.50;;;1.60;99.90;;;0.20;91.81;99492.44;5034363;28;20446;-74
2022/02/26 06:54:09;;;;;;;14.83;9.60;;;1.70;97.40;;;0.09;92.36;99498.56;5033701;28;20457;-81
2022/02/26 06:56:35;;;;;;;13.63;9.03;;;1.60;98.20;;;0.25;92.86;99489.44;5032912;28;20855;-80
2022/02/26 06:59:04;;;;;;;16.87;9.63;;;1.70;99.90;;;0.52;91.05;99494.53;5033622;28;20875;-81
2022/02/26 07:01:31;;;;;;;17.17;10.70;;;1.80;98.30;;;0.55;91.05;99507.63;5034272;28;20464;-82
2022/02/26 07:03:58;;;;;;;16.87;10.87;;;1.90;96.80;;;0.53;89.71;99504.22;5034432;28;20434;-81
2022/02/26 07:06:25;;;;;;;15.27;10.80;;;1.90;94.70;;;0.44;90.03;99507.56;5033566;28;20449;-80
2022/02/26 07:08:53;;;;;;;11.00;8.60;;;2.00;94.10;;;0.78;89.14;99501.53;5033694;28;20478;-79
2022/02/26 07:11:20;;;;;;;14.27;7.93;;;2.20;93.40;;;0.98;87.79;99507.97;5016735;28;20442;-81
2022/02/26 07:13:46;;;;;;;24.07;12.33;;;2.30;92.10;;;0.94;87.80;99507.38;5035807;28;20913;-80
2022/02/26 07:16:15;;;;;;;14.47;8.87;;;2.30;91.60;;;0.89;87.57;99509.53;5042788;28;20442;-81
2022/02/26 07:18:42;;;;;;;10.77;8.17;;;2.30;91.50;;;1.10;87.57;99511.53;5022890;28;20474;-84
2022/02/26 07:21:09;;;;;;;11.67;8.77;;;2.40;91.90;;;1.15;86.69;99514.69;5025184;28;20467;-80
2022/02/26 07:23:36;;;;;;;12.60;8.27;;;2.50;90.90;;;1.07;85.75;99512.59;5020733;28;20508;-74
2022/02/26 07:26:03;;;;;;;13.50;8.30;;;2.50;89.70;;;1.18;86.85;99516.28;5017731;28;20457;-82
2022/02/26 07:28:30;;;;;;;14.83;8.80;;;2.60;90.90;;;1.06;86.20;99516.25;5016374;28;20445;-81
2022/02/26 07:30:57;;;;;;;13.87;7.43;;;2.60;90.00;;;1.04;85.68;99534.16;5033632;28;20513;-83
2022/02/26 07:33:26;;;;;;;12.63;8.33;;;2.50;88.70;;;1.12;85.11;99523.75;5033759;28;20518;-83
2022/02/26 07:35:53;;;;;;;15.27;8.50;;;2.60;88.60;;;0.95;85.84;99530.38;5016490;28;20441;-81
2022/02/26 07:38:19;;;;;;;14.10;8.47;;;2.40;89.30;;;0.85;85.84;99484.13;5018310;28;20538;-82
2022/02/26 07:40:47;;;;;;;19.70;10.73;;;2.50;90.10;;;1.20;86.65;99530.31;5016191;28;20805;-75
2022/02/26 07:43:14;;;;;;;14.27;9.10;;;2.60;90.80;;;1.20;84.76;99538.28;5015500;28;20529;-83
2022/02/26 07:45:41;;;;;;;15.17;9.43;;;2.60;88.40;;;1.20;85.26;99536.47;5033904;28;20525;-82
2022/02/26 07:48:08;;;;;;;12.63;8.30;;;2.70;88.40;;;1.07;85.10;99498.47;5017643;28;20466;-84
2022/02/26 07:50:37;;;;;;;16.43;8.33;;;2.70;89.30;;;1.47;84.20;99539.78;5034268;28;20441;-89
2022/02/26 07:53:04;;;;;;;14.37;8.40;;;2.80;87.90;;;1.65;84.14;99546.34;5034059;28;20438;-72
2022/02/26 07:55:34;;;;;;;15.97;8.13;;;2.90;88.20;;;1.59;82.72;99548.63;5016336;28;20486;-84
2022/02/26 07:58:01;;;;;;;12.67;8.50;;;2.90;85.90;;;1.81;82.40;99553.97;5035414;28;20492;-84
2022/02/26 08:00:28;;;;;;;16.73;8.33;;;3.00;85.50;;;1.87;81.72;99552.63;5007693;28;20477;-83
2022/02/26 08:02:55;;;;;;;12.03;8.03;;;3.20;85.00;;;1.50;81.52;99494.25;5035904;28;20438;-83
2022/02/26 08:05:22;;;;;;;11.83;8.20;;;3.30;83.90;;;1.76;82.23;99558.81;5018993;28;20617;-81
2022/02/26 08:07:51;;;;;;;11.80;8.40;;;3.20;84.10;;;1.91;81.23;99554.09;5035904;28;20493;-70
2022/02/26 08:10:20;;;;;;;12.07;7.90;;;3.30;83.40;;;1.88;81.05;99562.31;5035893;28;20475;-84
2022/02/26 08:12:47;;;;;;;16.47;7.90;;;3.30;82.40;;;1.90;81.12;99562.22;5018625;28;20434;-84
2022/02/26 08:15:14;;;;;;;14.43;7.73;;;3.30;82.50;;;1.82;80.81;99565.47;4996574;28;20482;-81
2022/02/26 08:17:43;;;;;;;10.70;7.40;;;3.30;81.90;;;1.78;80.28;99564.88;5023204;28;20482;-84
2022/02/26 08:20:12;;;;;;;15.50;8.03;;;3.20;81.30;;;1.98;80.96;99557.13;5036353;28;20462;-83
2022/02/26 08:22:39;;;;;;;10.53;7.40;;;3.40;82.10;;;2.06;80.62;99551.19;5018569;28;20562;-86
2022/02/26 08:25:09;;;;;;;13.17;7.77;;;3.50;82.40;;;1.96;79.80;99562.56;5020554;28;20522;-88
2022/02/26 08:27:37;;;;;;;12.63;7.50;;;3.40;81.20;;;2.02;79.65;99565.72;5020169;28;20439;-85
2022/02/26 08:30:05;;;;;;;10.53;7.87;;;3.40;81.10;;;1.85;79.28;99567.91;5004838;28;20467;-87
2022/02/26 08:32:32;;;;;;;12.67;8.17;;;3.40;80.60;;;1.92;80.45;99570.94;5021375;28;20467;-89
2022/02/26 08:34:59;;;;;;;11.87;7.43;;;3.30;81.40;;;1.89;79.94;99572.00;5000690;28;20526;-86
2022/02/26 08:37:26;;;;;;;11.27;6.93;;;3.40;80.90;;;2.02;80.53;99565.72;5000762;28;20451;-88
2022/02/26 08:39:53;;;;;;;11.40;7.13;;;3.40;81.90;;;2.16;78.45;99567.28;5017596;28;20467;-87
2022/02/26 08:42:22;;;;;;;16.07;6.83;;;3.50;80.10;;;1.55;78.22;99500.06;5018227;28;20446;-85
2022/02/26 08:44:49;;;;;;;12.20;6.80;;;3.40;79.40;;;1.91;77.85;99503.47;5018028;28;20442;-85
2022/02/26 08:47:16;;;;;;;14.77;7.70;;;3.60;79.50;;;2.55;77.13;99563.19;5019065;28;20546;-85
2022/02/26 08:49:43;;;;;;;13.87;5.90;;;3.90;79.10;;;2.44;76.15;99571.22;5000466;28;20471;-87
2022/02/26 08:52:10;;;;;;;13.07;7.10;;;3.90;77.80;;;2.62;76.53;99560.88;5000594;28;20443;-85
2022/02/26 08:54:37;;;;;;;8.40;5.40;;;4.00;78.20;;;2.75;75.85;99568.72;5016954;28;20440;-84
2022/02/26 08:57:05;;;;;;;11.10;6.43;;;4.20;77.80;;;2.72;76.03;99558.28;5000925;28;20446;-85
2022/02/26 08:59:33;;;;;;;10.30;5.80;;;4.10;77.40;;;3.02;76.17;99554.03;5017308;28;20516;-84
2022/02/26 09:02:00;;;;;;;13.30;6.43;;;4.40;77.80;;;3.03;74.38;99558.41;5017882;28;20471;-87
2022/02/26 09:04:28;;;;;;;8.37;5.10;;;4.50;76.60;;;2.94;73.99;99564.50;5018882;28;20439;-84
2022/02/26 09:06:55;;;;;;;7.30;4.67;;;4.40;75.90;;;2.94;74.00;99553.81;5017049;28;20526;-84
2022/02/26 09:09:22;;;;;;;6.90;5.07;;;4.40;75.60;;;2.93;73.81;99554.78;5017717;28;20451;-86
2022/02/26 09:11:49;;;;;;;9.37;4.60;;;4.40;75.80;;;3.04;74.28;99552.09;5000013;28;20446;-87
2022/02/26 09:14:16;;;;;;;4.60;3.93;;;4.50;75.80;;;2.98;73.03;99557.94;4999502;28;20458;-83
2022/02/26 09:16:45;;;;;;;7.93;4.73;;;4.40;74.70;;;3.25;72.17;99552.09;5015144;28;20444;-84
2022/02/26 09:19:12;;;;;;;11.10;4.87;;;4.60;74.80;;;3.31;72.31;99556.06;4999000;28;20542;-84
2022/02/26 09:21:39;;;;;;;7.60;4.37;;;4.60;74.30;;;3.48;70.89;99553.78;5015482;28;20471;-85
2022/02/26 09:24:07;;;;;;;12.50;4.20;;;4.80;74.10;;;3.72;70.14;99571.34;5000028;28;20448;-86
2022/02/26 09:26:34;;;;;;;8.37;3.80;;;5.00;73.10;;;3.42;69.05;99554.31;4999880;28;20506;-85
2022/02/26 09:29:01;;;;;;;8.50;4.03;;;4.90;71.90;;;3.53;69.86;99559.56;5017160;28;20435;-82
2022/02/26 09:31:28;;;;;;;10.27;4.60;;;4.80;72.10;;;3.58;69.62;99562.69;4998710;28;20436;-71
2022/02/26 09:33:56;;;;;;;7.50;4.20;;;4.90;72.30;;;3.76;68.42;99557.56;4997912;28;20479;-74
2022/02/26 09:36:23;;;;;;;6.20;3.57;;;5.10;71.60;;;3.89;69.34;99554.69;5015816;28;20982;-79
2022/02/26 09:38:50;;;;;;;6.87;4.37;;;5.20;71.60;;;4.00;67.76;99558.22;5015262;28;20530;-78
2022/02/26 09:41:17;;;;;;;9.07;4.10;;;5.40;70.70;;;4.15;67.18;99561.38;5014136;28;20495;-77
2022/02/26 09:43:44;;;;;;;8.57;4.30;;;5.60;71.00;;;4.14;66.84;99565.88;5015167;28;20531;-78
2022/02/26 09:46:12;;;;;;;6.60;3.37;;;5.50;69.50;;;4.32;64.01;99560.72;5015343;28;20479;-86
2022/02/26 09:48:39;;;;;;;12.90;4.17;;;5.70;67.20;;;4.11;63.87;99566.16;5015777;28;20427;-84
2022/02/26 09:51:07;;;;;;;10.10;3.73;;;5.60;65.90;;;4.00;64.93;99558.22;4998066;28;20467;-84
2022/02/26 09:53:34;;;;;;;15.03;3.83;;;5.40;66.20;;;3.86;63.64;99551.44;5015980;28;20444;-84
2022/02/26 09:56:01;;;;;;;6.47;3.10;;;5.30;65.50;;;3.86;64.91;99552.25;4998932;28;20469;-83
2022/02/26 09:58:28;;;;;;;7.63;3.60;;;5.30;66.00;;;3.68;65.62;99555.56;5015734;28;20472;-83
2022/02/26 10:00:55;;;;;;;6.63;3.10;;;5.20;66.30;;;3.90;66.04;99563.53;4998062;28;20978;-85
2022/02/26 10:03:29;;;;;;;15.03;4.23;;;5.30;66.80;;;4.14;64.40;99557.84;4997851;28;20498;-84
2022/02/26 10:06:13;;;;;;;19.10;4.00;;;5.50;65.80;;;4.27;63.65;99565.66;5016296;28;20443;-88
2022/02/26 10:08:43;;;;;;;10.57;3.97;;;5.70;65.50;;;4.36;63.08;99564.81;5016941;28;20431;-86
2022/02/26 10:11:25;;;;;;;7.83;2.93;;;5.80;64.60;;;4.51;61.29;99575.97;4998307;28;20439;-83
2022/02/26 10:13:56;;;;;;;8.30;3.20;;;5.90;63.10;;;4.54;61.21;99573.03;5015218;28;20449;-71
2022/02/26 10:16:47;;;;;;;5.63;2.50;;;5.90;62.40;;;4.45;59.59;99576.50;5014391;28;20522;-71
2022/02/26 10:19:23;;;;;;;8.70;2.97;;;5.90;60.90;;;4.61;61.24;99580.50;5014294;28;20495;-71
2022/02/26 10:21:53;;;;;;;11.30;3.33;;;5.90;62.40;;;4.34;61.77;99565.94;5014085;28;20549;-70